Terminal Aerodrome Forecast
Issued by NWS

Home | Current Version | Previous Version | Text Only | Print | Product List | Glossary On
Versions: 1 2 3 4 5 6 7 8 9 10 11 12 13 14 15 16 17 18 19 20 21 22 23 24 25 26
000
FTUS44 KOUN 271733
TAFWWR
TAF
KWWR 271733Z 2718/2818 14014G23KT P6SM FEW035
      TEMPO 2721/2801 2SM TSRA BKN035CB
     FM280600 18011KT P6SM BKN025
     FM281500 18014G20KT P6SM SCT030=

USA.gov is the U.S. government's official web portal to all federal, state and local government web resources and services.